createdAt,value
2018-09-25T00:01:01.748Z,84.86
2018-09-25T00:03:35.239Z,84.24
2018-09-25T00:06:08.984Z,83.84
2018-09-25T00:08:43.993Z,85.05
2018-09-25T00:11:17.899Z,88.38
2018-09-25T00:13:52.439Z,87.21
2018-09-25T00:16:26.564Z,88.26
2018-09-25T00:19:00.363Z,88.57
2018-09-25T00:21:34.060Z,88.67
2018-09-25T00:24:07.887Z,87.97
2018-09-25T00:26:42.008Z,88.54
2018-09-25T00:29:15.991Z,87.46
2018-09-25T00:31:49.968Z,87.93
2018-09-25T00:34:23.537Z,87.43
2018-09-25T00:36:57.278Z,86.64
2018-09-25T00:39:31.463Z,85.46
2018-09-25T00:42:05.096Z,86.12
2018-09-25T00:44:38.764Z,85.31
2018-09-25T00:47:13.321Z,84.68
2018-09-25T00:49:47.337Z,86.71
2018-09-25T00:52:21.082Z,88.25
2018-09-25T00:54:55.304Z,87.34
2018-09-25T00:57:29.013Z,86.78
2018-09-25T01:00:02.843Z,87.16
2018-09-25T01:02:36.925Z,87.11
2018-09-25T01:05:10.845Z,86.88
2018-09-25T01:07:44.443Z,88.02
2018-09-25T01:10:19.068Z,88.24
2018-09-25T01:12:53.046Z,88.04
2018-09-25T01:15:26.517Z,87.29
2018-09-25T01:18:00.302Z,88.39
2018-09-25T01:20:34.839Z,88.24
2018-09-25T01:23:08.378Z,86.92
2018-09-25T01:25:42.163Z,87.07
2018-09-25T01:28:15.872Z,87.46
2018-09-25T01:30:50.171Z,87.72
2018-09-25T01:33:23.775Z,87.95
2018-09-25T01:35:58.548Z,87.59
2018-09-25T01:38:32.301Z,88.14
2018-09-25T01:41:06.947Z,88.37
2018-09-25T01:43:40.691Z,91.08
2018-09-25T01:46:14.423Z,89.69
2018-09-25T01:48:48.216Z,89.77
2018-09-25T01:51:22.824Z,88.26
2018-09-25T01:53:56.583Z,86.51
2018-09-25T01:56:30.379Z,85.89
2018-09-25T01:59:04.109Z,85.09
2018-09-25T02:01:38.999Z,86.98
2018-09-25T02:04:12.859Z,86.84
2018-09-25T02:06:46.475Z,86.81
2018-09-25T02:09:20.356Z,86.39
2018-09-25T02:11:54.373Z,87.14
2018-09-25T02:14:29.141Z,85.33
2018-09-25T02:17:02.793Z,86.53
2018-09-25T02:19:37.281Z,86.20
2018-09-25T02:22:12.012Z,85.66
2018-09-25T02:24:45.834Z,85.34
2018-09-25T02:27:19.719Z,85.84
2018-09-25T02:29:53.339Z,86.12
2018-09-25T02:32:27.811Z,87.45
2018-09-25T02:35:01.436Z,87.63
2018-09-25T02:37:35.132Z,87.08
2018-09-25T02:40:08.876Z,86.90
2018-09-25T02:42:43.491Z,87.72
2018-09-25T02:45:17.354Z,87.21
2018-09-25T02:47:50.884Z,86.69
2018-09-25T02:50:24.683Z,86.88
2018-09-25T02:52:59.172Z,87.16
2018-09-25T02:55:32.807Z,86.02
2018-09-25T02:58:06.583Z,85.28
2018-09-25T03:00:41.101Z,85.88
2018-09-25T03:03:14.981Z,87.37
2018-09-25T03:05:48.687Z,88.23
2018-09-25T03:08:22.477Z,87.42
2018-09-25T03:10:56.209Z,87.33
2018-09-25T03:13:30.156Z,86.37
2018-09-25T03:16:03.939Z,89.59
2018-09-25T03:18:37.607Z,90.51
2018-09-25T03:21:12.136Z,90.08
2018-09-25T03:23:46.469Z,88.29
2018-09-25T03:26:19.976Z,84.71
2018-09-25T03:28:53.758Z,85.09
2018-09-25T03:31:27.443Z,85.27
2018-09-25T03:34:02.057Z,85.92
2018-09-25T03:36:35.897Z,84.77
2018-09-25T03:39:11.796Z,85.24
2018-09-25T03:41:45.545Z,84.48
2018-09-25T03:44:20.627Z,84.06
2018-09-25T03:46:54.437Z,86.15
2018-09-25T03:49:28.266Z,87.25
2018-09-25T03:52:02.883Z,87.04
2018-09-25T03:54:37.121Z,88.09
2018-09-25T03:57:10.736Z,87.49
2018-09-25T03:59:44.611Z,87.83
2018-09-25T04:02:18.244Z,88.17
2018-09-25T04:04:52.056Z,87.65
2018-09-25T04:07:25.794Z,87.09
2018-09-25T04:09:59.639Z,86.40
2018-09-25T04:12:33.301Z,87.05
2018-09-25T04:15:07.980Z,87.79
2018-09-25T04:17:41.750Z,87.86
2018-09-25T04:20:15.440Z,87.78
2018-09-25T04:22:49.251Z,86.91
2018-09-25T04:25:23.289Z,86.45
2018-09-25T04:27:57.064Z,86.30
2018-09-25T04:30:30.606Z,87.52
2018-09-25T04:33:04.469Z,87.45
2018-09-25T04:35:38.775Z,87.62
2018-09-25T04:38:12.724Z,86.66
2018-09-25T04:40:46.379Z,87.82
2018-09-25T04:43:19.945Z,88.32
2018-09-25T04:45:56.660Z,88.01
2018-09-25T04:48:30.399Z,87.68
2018-09-25T04:51:04.072Z,86.49
2018-09-25T04:53:37.980Z,85.60
2018-09-25T04:56:13.415Z,87.90
2018-09-25T04:58:47.102Z,88.69
2018-09-25T05:01:20.871Z,87.88
2018-09-25T05:03:54.603Z,86.82
2018-09-25T05:06:28.725Z,87.19
2018-09-25T05:09:02.369Z,86.44
2018-09-25T05:11:36.113Z,84.55
2018-09-25T05:14:09.899Z,85.90
2018-09-25T05:16:44.374Z,86.89
2018-09-25T05:19:18.002Z,87.11
2018-09-25T05:21:51.647Z,85.90
2018-09-25T05:24:25.516Z,85.60
2018-09-25T05:26:59.659Z,84.62
2018-09-25T05:29:33.369Z,86.39
2018-09-25T05:32:07.820Z,85.78
2018-09-25T05:34:41.512Z,86.61
2018-09-25T05:37:15.732Z,87.27
2018-09-25T05:39:49.572Z,87.45
2018-09-25T05:42:25.869Z,87.96
2018-09-25T05:44:59.705Z,87.68
2018-09-25T05:47:33.761Z,87.25
2018-09-25T05:50:07.596Z,86.91
2018-09-25T05:52:41.347Z,86.70
2018-09-25T05:55:15.099Z,86.83
2018-09-25T05:57:49.376Z,86.62
2018-09-25T06:00:23.285Z,87.05
2018-09-25T06:02:56.983Z,87.17
2018-09-25T06:05:30.703Z,86.80
2018-09-25T06:08:04.874Z,85.82
2018-09-25T06:10:38.798Z,85.82
2018-09-25T06:13:12.518Z,89.13
2018-09-25T06:15:46.476Z,89.51
2018-09-25T06:18:20.549Z,86.41
2018-09-25T06:20:54.302Z,89.83
2018-09-25T06:23:27.837Z,88.38
2018-09-25T06:26:01.583Z,88.88
2018-09-25T06:28:36.113Z,88.89
2018-09-25T06:31:09.840Z,88.68
2018-09-25T06:33:43.497Z,86.24
2018-09-25T06:36:17.062Z,86.49
2018-09-25T06:38:51.438Z,87.40
2018-09-25T06:41:25.121Z,87.57
2018-09-25T06:43:58.938Z,88.89
2018-09-25T06:46:32.705Z,87.86
2018-09-25T06:49:07.256Z,84.12
2018-09-25T06:51:41.591Z,84.92
2018-09-25T06:54:15.303Z,83.00
2018-09-25T06:56:49.007Z,83.12
2018-09-25T06:59:23.388Z,82.14
2018-09-25T07:01:57.205Z,82.29
2018-09-25T07:04:31.411Z,79.28
2018-09-25T07:07:05.254Z,75.96
2018-09-25T07:09:39.192Z,76.27
2018-09-25T07:12:13.283Z,72.89
2018-09-25T07:14:47.781Z,71.23
2018-09-25T07:17:21.415Z,70.46
2018-09-25T07:19:56.072Z,69.43
2018-09-25T07:22:29.878Z,68.51
2018-09-25T07:25:03.558Z,69.58
2018-09-25T07:27:37.283Z,73.08
2018-09-25T07:30:12.348Z,66.75
2018-09-25T07:32:47.276Z,65.90
2018-09-25T07:35:20.927Z,65.16
2018-09-25T07:37:54.492Z,65.27
2018-09-25T07:40:28.340Z,63.44
2018-09-25T07:43:03.138Z,63.22
2018-09-25T07:45:36.627Z,62.46
2018-09-25T07:48:10.526Z,66.14
2018-09-25T07:50:45.100Z,62.57
2018-09-25T07:53:18.846Z,69.63
2018-09-25T07:55:52.382Z,59.18
2018-09-25T07:58:26.786Z,54.38
2018-09-25T08:01:02.875Z,51.27
2018-09-25T08:03:36.533Z,51.51
2018-09-25T08:06:10.314Z,51.26
2018-09-25T08:08:44.129Z,54.24
2018-09-25T08:11:18.416Z,52.04
2018-09-25T08:13:51.939Z,55.80
2018-09-25T08:16:25.470Z,55.86
2018-09-25T08:18:59.952Z,54.37
2018-09-25T08:21:34.488Z,52.54
2018-09-25T08:24:08.218Z,52.88
2018-09-25T08:26:42.010Z,56.60
2018-09-25T08:29:15.893Z,54.82
2018-09-25T08:31:50.373Z,57.38
2018-09-25T08:34:24.028Z,54.94
2018-09-25T08:36:57.688Z,56.54
2018-09-25T08:39:31.613Z,55.89
2018-09-25T08:42:06.838Z,54.38
2018-09-25T08:44:40.531Z,53.46
2018-09-25T08:47:14.290Z,52.68
2018-09-25T08:49:48.118Z,52.13
2018-09-25T08:52:22.190Z,52.09
2018-09-25T08:54:56.188Z,53.31
2018-09-25T08:57:30.009Z,53.68
2018-09-25T09:00:03.720Z,53.32
2018-09-25T09:02:38.047Z,51.22
2018-09-25T09:05:11.898Z,49.48
2018-09-25T09:07:45.591Z,50.17
2018-09-25T09:10:19.555Z,51.33
2018-09-25T09:12:54.096Z,51.06
2018-09-25T09:15:27.816Z,51.30
2018-09-25T09:18:01.568Z,52.67
2018-09-25T09:20:35.251Z,49.89
2018-09-25T09:23:09.672Z,50.47
2018-09-25T09:25:43.319Z,49.15
2018-09-25T09:28:16.773Z,48.13
2018-09-25T09:30:50.450Z,46.72
2018-09-25T09:33:25.278Z,46.80
2018-09-25T09:35:58.960Z,46.95
2018-09-25T09:38:32.591Z,46.87
2018-09-25T09:41:06.489Z,47.06
2018-09-25T09:43:40.396Z,45.94
2018-09-25T09:46:14.081Z,46.56
2018-09-25T09:48:47.871Z,45.86
2018-09-25T09:51:21.532Z,45.06
2018-09-25T09:53:55.938Z,44.58
2018-09-25T09:56:30.821Z,44.09
2018-09-25T09:59:04.451Z,40.76
2018-09-25T10:01:40.947Z,40.72
2018-09-25T10:04:15.643Z,42.26
2018-09-25T10:06:49.140Z,43.18
2018-09-25T10:09:22.916Z,42.26
2018-09-25T10:11:56.508Z,41.50
2018-09-25T10:14:30.782Z,40.68
2018-09-25T10:17:04.463Z,39.55
2018-09-25T10:19:38.020Z,40.09
2018-09-25T10:22:12.048Z,39.61
2018-09-25T10:24:46.671Z,41.03
2018-09-25T10:27:21.410Z,41.90
2018-09-25T10:29:55.248Z,41.62
2018-09-25T10:32:29.045Z,41.67
2018-09-25T10:35:03.443Z,39.22
2018-09-25T10:37:37.008Z,39.87
2018-09-25T10:40:10.934Z,38.51
2018-09-25T10:42:44.803Z,37.19
2018-09-25T10:45:18.541Z,37.34
2018-09-25T10:47:52.245Z,39.07
2018-09-25T10:50:26.841Z,38.71
2018-09-25T10:53:00.601Z,39.81
2018-09-25T10:55:34.704Z,37.77
2018-09-25T10:58:08.244Z,37.03
2018-09-25T11:00:42.039Z,36.67
2018-09-25T11:03:15.859Z,37.58
2018-09-25T11:05:51.259Z,36.37
2018-09-25T11:08:24.889Z,37.99
2018-09-25T11:10:58.520Z,37.14
2018-09-25T11:13:32.356Z,38.14
2018-09-25T11:16:07.340Z,35.48
2018-09-25T11:18:41.172Z,36.10
2018-09-25T11:21:14.959Z,37.87
2018-09-25T11:23:48.732Z,39.09
2018-09-25T11:26:22.721Z,37.18
2018-09-25T11:28:56.449Z,38.70
2018-09-25T11:31:30.189Z,39.46
2018-09-25T11:34:03.785Z,36.67
2018-09-25T11:36:38.220Z,37.76
2018-09-25T11:39:13.017Z,37.52
2018-09-25T11:41:47.631Z,37.51
2018-09-25T11:44:21.308Z,36.50
2018-09-25T11:46:55.276Z,36.46
2018-09-25T11:49:28.767Z,37.07
2018-09-25T11:52:02.475Z,37.52
2018-09-25T11:54:36.730Z,37.92
2018-09-25T11:57:11.155Z,37.78
2018-09-25T11:59:44.918Z,36.82
2018-09-25T12:02:18.753Z,37.72
2018-09-25T12:04:52.432Z,37.29
2018-09-25T12:07:27.327Z,35.95
2018-09-25T12:10:01.095Z,35.69
2018-09-25T12:12:34.940Z,34.78
2018-09-25T12:15:08.699Z,35.02
2018-09-25T12:17:42.915Z,35.60
2018-09-25T12:20:17.354Z,35.75
2018-09-25T12:22:51.030Z,36.33
2018-09-25T12:25:24.738Z,35.71
2018-09-25T12:27:59.520Z,37.08
2018-09-25T12:30:33.271Z,35.00
2018-09-25T12:33:08.597Z,34.92
2018-09-25T12:35:42.260Z,35.60
2018-09-25T12:38:17.131Z,37.37
2018-09-25T12:40:50.922Z,36.33
2018-09-25T12:43:24.759Z,36.72
2018-09-25T12:45:58.502Z,35.92
2018-09-25T12:48:32.638Z,36.29
2018-09-25T12:51:06.284Z,35.93
2018-09-25T12:53:40.570Z,35.72
2018-09-25T12:56:14.415Z,35.32
2018-09-25T12:58:48.841Z,36.28
2018-09-25T13:01:22.466Z,35.43
2018-09-25T13:03:56.205Z,36.60
2018-09-25T13:06:29.929Z,36.02
2018-09-25T13:09:04.659Z,38.44
2018-09-25T13:11:38.206Z,37.47
2018-09-25T13:14:11.847Z,38.44
2018-09-25T13:16:45.934Z,39.93
2018-09-25T13:19:21.128Z,38.05
2018-09-25T13:21:54.723Z,39.86
2018-09-25T13:24:28.332Z,38.54
2018-09-25T13:27:02.343Z,38.58
2018-09-25T13:29:37.168Z,39.71
2018-09-25T13:32:10.875Z,40.16
2018-09-25T13:34:44.619Z,39.78
2018-09-25T13:37:18.212Z,39.90
2018-09-25T13:39:52.919Z,40.22
2018-09-25T13:42:26.894Z,39.31
2018-09-25T13:45:00.838Z,40.45
2018-09-25T13:47:34.572Z,40.47
2018-09-25T13:50:08.779Z,41.62
2018-09-25T13:52:42.588Z,42.37
2018-09-25T13:55:16.227Z,40.89
2018-09-25T13:57:49.946Z,40.86
2018-09-25T14:00:24.393Z,41.31
2018-09-25T14:02:58.300Z,40.23
2018-09-25T14:05:31.925Z,39.76
2018-09-25T14:08:06.656Z,40.64
2018-09-25T14:10:41.205Z,40.91
2018-09-25T14:13:14.956Z,41.58
2018-09-25T14:15:49.021Z,42.34
2018-09-25T14:18:23.707Z,43.35
2018-09-25T14:20:57.447Z,43.41
2018-09-25T14:23:31.170Z,44.08
2018-09-25T14:26:05.057Z,43.43
2018-09-25T14:28:39.281Z,43.39
2018-09-25T14:31:13.283Z,42.33
2018-09-25T14:33:47.064Z,42.82
2018-09-25T14:36:21.269Z,43.47
2018-09-25T14:38:55.027Z,43.88
2018-09-25T14:41:30.022Z,42.79
2018-09-25T14:44:03.755Z,42.36
2018-09-25T14:46:37.428Z,41.01
2018-09-25T14:49:11.139Z,41.20
2018-09-25T14:51:45.926Z,40.76
2018-09-25T14:54:20.169Z,41.24
2018-09-25T14:56:53.993Z,41.34
2018-09-25T14:59:27.815Z,41.31
2018-09-25T15:02:02.291Z,41.23
2018-09-25T15:04:35.918Z,40.56
2018-09-25T15:07:10.634Z,40.86
2018-09-25T15:09:44.454Z,41.42
2018-09-25T15:12:19.314Z,41.51
2018-09-25T15:14:53.755Z,42.91
2018-09-25T15:17:27.506Z,42.19
2018-09-25T15:20:01.068Z,42.02
2018-09-25T15:22:35.059Z,41.91
2018-09-25T15:25:08.668Z,41.89
2018-09-25T15:27:42.524Z,42.00
2018-09-25T15:30:16.223Z,41.96
2018-09-25T15:32:50.929Z,42.45
2018-09-25T15:35:24.637Z,42.44
2018-09-25T15:37:58.385Z,42.42
2018-09-25T15:40:32.121Z,42.12
2018-09-25T15:43:06.396Z,42.06
2018-09-25T15:45:40.413Z,41.74
2018-09-25T15:48:14.416Z,42.47
2018-09-25T15:50:48.623Z,41.86
2018-09-25T15:53:23.393Z,41.89
2018-09-25T15:55:57.168Z,42.13
2018-09-25T15:58:30.888Z,41.80
2018-09-25T16:01:06.210Z,43.08
2018-09-25T16:03:41.203Z,41.24
2018-09-25T16:06:16.003Z,42.32
2018-09-25T16:08:49.793Z,41.21
2018-09-25T16:11:24.550Z,42.13
2018-09-25T16:14:00.550Z,41.85
2018-09-25T16:16:34.263Z,41.68
2018-09-25T16:19:08.015Z,42.20
2018-09-25T16:21:41.923Z,42.13
2018-09-25T16:24:16.336Z,42.31
2018-09-25T16:26:50.793Z,42.93
2018-09-25T16:29:24.717Z,42.63
2018-09-25T16:32:00.349Z,43.46
2018-09-25T16:34:35.001Z,43.90
2018-09-25T16:37:08.721Z,44.87
2018-09-25T16:39:42.603Z,44.31
2018-09-25T16:42:16.274Z,44.17
2018-09-25T16:44:52.030Z,44.22
2018-09-25T16:47:26.123Z,44.42
2018-09-25T16:49:59.998Z,43.77
2018-09-25T16:52:34.147Z,44.20
2018-09-25T16:55:08.524Z,44.41
2018-09-25T16:57:42.479Z,45.09
2018-09-25T17:00:16.082Z,46.15
2018-09-25T17:02:49.918Z,46.16
2018-09-25T17:05:24.321Z,46.57
2018-09-25T17:07:58.118Z,46.33
2018-09-25T17:10:32.580Z,46.94
2018-09-25T17:13:07.372Z,47.63
2018-09-25T17:15:42.827Z,48.44
2018-09-25T17:18:16.556Z,48.05
2018-09-25T17:20:50.391Z,48.69
2018-09-25T17:23:24.266Z,49.23
2018-09-25T17:25:58.555Z,49.70
2018-09-25T17:28:32.141Z,48.97
2018-09-25T17:31:06.152Z,50.17
2018-09-25T17:33:39.915Z,50.79
2018-09-25T17:36:14.120Z,50.84
2018-09-25T17:38:47.703Z,50.57
2018-09-25T17:41:21.553Z,50.96
2018-09-25T17:43:55.439Z,51.34
2018-09-25T17:46:31.324Z,51.67
2018-09-25T17:49:05.146Z,52.14
2018-09-25T17:51:39.774Z,52.37
2018-09-25T17:54:13.674Z,53.42
2018-09-25T17:56:47.496Z,53.21
2018-09-25T17:59:21.216Z,53.78
2018-09-25T18:01:55.148Z,54.05
2018-09-25T18:04:28.907Z,55.30
2018-09-25T18:07:03.592Z,55.66
2018-09-25T18:09:37.360Z,56.89
2018-09-25T18:12:11.088Z,57.41
2018-09-25T18:14:44.885Z,60.16
2018-09-25T18:17:19.736Z,61.13
2018-09-25T18:19:53.553Z,61.80
2018-09-25T18:22:27.359Z,62.95
2018-09-25T18:25:01.429Z,63.26
2018-09-25T18:27:36.218Z,63.75
2018-09-25T18:30:10.202Z,64.59
2018-09-25T18:32:44.072Z,65.45
2018-09-25T18:35:17.574Z,64.90
2018-09-25T18:37:51.630Z,65.03
2018-09-25T18:40:25.538Z,66.34
2018-09-25T18:42:59.153Z,66.03
2018-09-25T18:45:32.762Z,67.08
2018-09-25T18:48:07.303Z,67.28
2018-09-25T18:50:41.246Z,67.27
2018-09-25T18:53:16.561Z,67.65
2018-09-25T18:55:50.868Z,67.37
2018-09-25T18:58:24.995Z,69.81
2018-09-25T19:00:58.868Z,68.87
2018-09-25T19:03:32.798Z,71.01
2018-09-25T19:06:06.998Z,71.27
2018-09-25T19:08:40.879Z,71.25
2018-09-25T19:11:14.857Z,71.50
2018-09-25T19:13:48.631Z,71.11
2018-09-25T19:16:23.970Z,72.33
2018-09-25T19:18:57.927Z,73.09
2018-09-25T19:21:31.757Z,73.61
2018-09-25T19:24:05.298Z,73.97
2018-09-25T19:26:39.091Z,74.39
2018-09-25T19:29:13.373Z,74.91
2018-09-25T19:31:47.302Z,74.06
2018-09-25T19:34:21.091Z,73.85
2018-09-25T19:36:55.853Z,75.19
2018-09-25T19:39:30.455Z,74.09
2018-09-25T19:42:04.297Z,75.69
2018-09-25T19:44:38.066Z,75.20
2018-09-25T19:47:12.475Z,75.84
2018-09-25T19:49:47.936Z,74.83
2018-09-25T19:52:21.870Z,76.35
2018-09-25T19:54:55.686Z,76.45
2018-09-25T19:57:29.451Z,76.38
2018-09-25T20:00:03.855Z,76.86
2018-09-25T20:02:37.731Z,76.35
2018-09-25T20:05:12.056Z,77.92
2018-09-25T20:07:45.743Z,77.48
2018-09-25T20:10:19.975Z,77.20
2018-09-25T20:12:53.811Z,77.77
2018-09-25T20:15:27.505Z,77.90
2018-09-25T20:18:01.198Z,78.54
2018-09-25T20:20:35.600Z,77.49
2018-09-25T20:23:09.398Z,78.43
2018-09-25T20:25:43.886Z,78.14
2018-09-25T20:28:17.587Z,78.38
2018-09-25T20:30:51.746Z,79.17
2018-09-25T20:33:25.426Z,79.63
2018-09-25T20:35:59.171Z,79.74
2018-09-25T20:38:32.776Z,80.04
2018-09-25T20:41:07.789Z,79.21
2018-09-25T20:43:41.549Z,79.56
2018-09-25T20:46:15.240Z,79.37
2018-09-25T20:48:48.948Z,80.64
2018-09-25T20:51:23.053Z,80.73
2018-09-25T20:53:56.886Z,80.38
2018-09-25T20:56:30.464Z,81.07
2018-09-25T20:59:04.275Z,81.26
2018-09-25T21:01:38.919Z,79.63
2018-09-25T21:04:12.925Z,80.99
2018-09-25T21:06:46.514Z,80.62
2018-09-25T21:09:20.275Z,80.79
2018-09-25T21:11:54.240Z,81.42
2018-09-25T21:14:27.978Z,81.44
2018-09-25T21:17:01.849Z,81.94
2018-09-25T21:19:35.506Z,81.21
2018-09-25T21:22:09.354Z,81.13
2018-09-25T21:24:43.027Z,81.65
2018-09-25T21:27:16.729Z,82.15
2018-09-25T21:29:50.219Z,82.73
2018-09-25T21:32:25.058Z,82.17
2018-09-25T21:34:58.859Z,82.62
2018-09-25T21:37:32.580Z,82.44
2018-09-25T21:40:06.165Z,82.19
2018-09-25T21:42:41.424Z,82.10
2018-09-25T21:45:15.329Z,82.23
2018-09-25T21:47:49.219Z,82.03
2018-09-25T21:50:22.921Z,82.72
2018-09-25T21:52:57.831Z,83.41
2018-09-25T21:55:32.295Z,83.13
2018-09-25T21:58:06.619Z,83.87
2018-09-25T22:00:40.415Z,81.70
2018-09-25T22:03:14.436Z,83.92
2018-09-25T22:05:48.277Z,83.11
2018-09-25T22:08:22.125Z,83.00
2018-09-25T22:10:55.743Z,82.26
2018-09-25T22:13:30.410Z,82.60
2018-09-25T22:16:03.973Z,82.60
2018-09-25T22:18:37.901Z,84.59
2018-09-25T22:21:11.859Z,83.80
2018-09-25T22:23:52.451Z,83.08
2018-09-25T22:26:27.030Z,84.59
2018-09-25T22:29:00.764Z,82.72
2018-09-25T22:31:34.603Z,82.75
2018-09-25T22:34:09.355Z,83.40
2018-09-25T22:36:43.375Z,84.01
2018-09-25T22:39:17.335Z,84.15
2018-09-25T22:41:50.927Z,83.88
2018-09-25T22:44:25.164Z,82.54
2018-09-25T22:46:58.947Z,84.43
2018-09-25T22:49:33.021Z,84.36
2018-09-25T22:52:06.675Z,84.51
2018-09-25T22:54:40.827Z,84.87
2018-09-25T22:57:14.578Z,84.97
2018-09-25T22:59:48.228Z,84.71
2018-09-25T23:02:22.917Z,83.49
2018-09-25T23:04:57.539Z,84.40
2018-09-25T23:07:31.166Z,84.24
2018-09-25T23:10:04.895Z,84.55
2018-09-25T23:12:38.773Z,84.67
2018-09-25T23:15:13.481Z,85.37
2018-09-25T23:17:47.448Z,83.92
2018-09-25T23:20:21.153Z,85.79
2018-09-25T23:22:54.792Z,85.41
2018-09-25T23:25:29.272Z,85.47
2018-09-25T23:28:03.047Z,85.17
2018-09-25T23:30:36.877Z,83.64
2018-09-25T23:33:10.592Z,84.82
2018-09-25T23:35:44.560Z,84.96
2018-09-25T23:38:18.317Z,84.53
2018-09-25T23:40:55.508Z,84.39
2018-09-25T23:44:26.711Z,85.60
2018-09-25T23:47:30.991Z,86.37
2018-09-25T23:50:03.912Z,87.11
2018-09-25T23:52:42.648Z,86.07
2018-09-25T23:55:17.893Z,85.86
2018-09-25T23:57:49.536Z,86.61
